createdAt,value
2023-03-15T00:01:16.685Z,0.42
2023-03-15T00:03:45.510Z,0.41
2023-03-15T00:06:13.985Z,0.41
2023-03-15T00:08:42.410Z,0.38
2023-03-15T00:11:11.508Z,0.40
2023-03-15T00:13:39.897Z,0.38
2023-03-15T00:16:08.578Z,0.42
2023-03-15T00:18:39.506Z,0.42
2023-03-15T00:21:08.756Z,0.44
2023-03-15T00:23:36.983Z,0.45
2023-03-15T00:26:07.009Z,0.46
2023-03-15T00:28:36.650Z,0.46
2023-03-15T00:31:06.128Z,0.45
2023-03-15T00:33:35.888Z,0.45
2023-03-15T00:36:07.275Z,0.46
2023-03-15T00:38:35.590Z,0.45
2023-03-15T00:41:11.650Z,0.42
2023-03-15T00:43:39.823Z,0.45
2023-03-15T00:46:08.325Z,0.42
2023-03-15T00:48:36.435Z,0.40
2023-03-15T00:51:08.529Z,0.40
2023-03-15T00:53:37.251Z,0.34
2023-03-15T00:56:06.902Z,0.33
2023-03-15T00:58:35.325Z,0.35
2023-03-15T01:01:07.082Z,0.33
2023-03-15T01:03:36.941Z,0.31
2023-03-15T01:06:11.393Z,0.28
2023-03-15T01:08:39.925Z,0.24
2023-03-15T01:11:10.405Z,0.21
2023-03-15T01:13:39.136Z,0.18
2023-03-15T01:16:09.865Z,0.17
2023-03-15T01:18:38.547Z,0.13
2023-03-15T01:21:11.248Z,0.07
2023-03-15T01:23:39.574Z,0.04
2023-03-15T01:26:09.625Z,-0.02
2023-03-15T01:28:40.557Z,-0.02
2023-03-15T01:31:14.732Z,0.03
2023-03-15T01:33:43.308Z,0.03
2023-03-15T01:36:13.393Z,0.04
2023-03-15T01:38:41.817Z,0.01
2023-03-15T01:41:10.509Z,0.04
2023-03-15T01:43:38.788Z,-0.02
2023-03-15T01:46:27.085Z,-0.04
2023-03-15T01:49:00.752Z,-0.02
2023-03-15T01:51:34.968Z,-0.03
2023-03-15T01:54:06.925Z,-0.06
2023-03-15T01:56:36.860Z,-0.11
2023-03-15T01:59:07.223Z,-0.13
2023-03-15T02:01:37.763Z,-0.13
2023-03-15T02:04:09.363Z,-0.14
2023-03-15T02:06:38.941Z,-0.17
2023-03-15T02:09:14.835Z,-0.21
2023-03-15T02:11:43.793Z,-0.27
2023-03-15T02:14:14.727Z,-0.31
2023-03-15T02:16:44.273Z,-0.37
2023-03-15T02:19:22.323Z,-0.40
2023-03-15T02:21:56.521Z,-0.44
2023-03-15T02:24:32.804Z,-0.45
2023-03-15T02:27:01.360Z,-0.45
2023-03-15T02:29:36.264Z,-0.48
2023-03-15T02:32:05.084Z,-0.44
2023-03-15T02:34:33.626Z,-0.45
2023-03-15T02:37:03.516Z,-0.52
2023-03-15T02:39:32.807Z,-0.55
2023-03-15T02:42:01.925Z,-0.51
2023-03-15T02:44:33.992Z,-0.55
2023-03-15T02:47:07.158Z,-0.52
2023-03-15T02:49:38.836Z,-0.48
2023-03-15T02:52:07.874Z,-0.44
2023-03-15T02:54:36.544Z,-0.41
2023-03-15T02:57:04.994Z,-0.40
2023-03-15T02:59:34.327Z,-0.40
2023-03-15T03:02:03.833Z,-0.38
2023-03-15T03:04:33.360Z,-0.37
2023-03-15T03:07:03.507Z,-0.35
2023-03-15T03:09:31.753Z,-0.40
2023-03-15T03:11:59.879Z,-0.44
2023-03-15T03:14:27.903Z,-0.45
2023-03-15T03:16:57.369Z,-0.54
2023-03-15T03:19:26.207Z,-0.51
2023-03-15T03:21:54.481Z,-0.55
2023-03-15T03:24:22.533Z,-0.55
2023-03-15T03:26:50.766Z,-0.58
2023-03-15T03:29:19.457Z,-0.64
2023-03-15T03:31:47.731Z,-0.62
2023-03-15T03:34:17.806Z,-0.62
2023-03-15T03:36:46.013Z,-0.61
2023-03-15T03:39:14.370Z,-0.64
2023-03-15T03:41:42.420Z,-0.64
2023-03-15T03:44:11.583Z,-0.64
2023-03-15T03:46:40.665Z,-0.66
2023-03-15T03:49:12.472Z,-0.64
2023-03-15T03:51:42.413Z,-0.57
2023-03-15T03:54:10.743Z,-0.54
2023-03-15T03:56:40.460Z,-0.50
2023-03-15T03:59:09.245Z,-0.45
2023-03-15T04:01:38.631Z,-0.40
2023-03-15T04:04:07.253Z,-0.34
2023-03-15T04:06:44.508Z,-0.31
2023-03-15T04:09:17.785Z,-0.30
2023-03-15T04:11:45.855Z,-0.30
2023-03-15T04:14:15.393Z,-0.23
2023-03-15T04:16:43.729Z,-0.21
2023-03-15T04:19:12.817Z,-0.20
2023-03-15T04:21:47.497Z,-0.15
2023-03-15T04:24:17.111Z,-0.13
2023-03-15T04:26:48.099Z,-0.14
2023-03-15T04:29:17.110Z,-0.13
2023-03-15T04:31:46.369Z,-0.17
2023-03-15T04:34:16.263Z,-0.21
2023-03-15T04:36:44.512Z,-0.24
2023-03-15T04:39:14.843Z,-0.21
2023-03-15T04:41:45.127Z,-0.24
2023-03-15T04:44:16.300Z,-0.24
2023-03-15T04:46:45.314Z,-0.21
2023-03-15T04:49:13.692Z,-0.25
2023-03-15T04:51:43.301Z,-0.24
2023-03-15T04:54:12.321Z,-0.20
2023-03-15T04:56:43.581Z,-0.21
2023-03-15T04:59:12.989Z,-0.24
2023-03-15T05:01:41.958Z,-0.25
2023-03-15T05:04:10.930Z,-0.25
2023-03-15T05:06:41.157Z,-0.28
2023-03-15T05:09:10.140Z,-0.34
2023-03-15T05:11:38.171Z,-0.34
2023-03-15T05:14:06.206Z,-0.33
2023-03-15T05:16:35.778Z,-0.30
2023-03-15T05:19:04.160Z,-0.25
2023-03-15T05:21:32.780Z,-0.31
2023-03-15T05:24:01.088Z,-0.35
2023-03-15T05:26:29.510Z,-0.35
2023-03-15T05:28:58.798Z,-0.33
2023-03-15T05:31:27.344Z,-0.24
2023-03-15T05:33:57.119Z,-0.21
2023-03-15T05:36:25.424Z,-0.13
2023-03-15T05:38:53.617Z,-0.06
2023-03-15T05:41:21.928Z,0.04
2023-03-15T05:43:49.921Z,0.21
2023-03-15T05:46:18.554Z,0.38
2023-03-15T05:48:48.528Z,0.52
2023-03-15T05:51:18.433Z,0.64
2023-03-15T05:53:46.534Z,0.66
2023-03-15T05:56:15.039Z,0.61
2023-03-15T05:58:43.082Z,0.56
2023-03-15T06:01:11.723Z,0.54
2023-03-15T06:03:42.907Z,0.52
2023-03-15T06:06:10.947Z,0.51
2023-03-15T06:08:40.545Z,0.56
2023-03-15T06:11:09.123Z,0.65
2023-03-15T06:13:41.500Z,0.66
2023-03-15T06:16:09.583Z,0.65
2023-03-15T06:18:37.641Z,0.66
2023-03-15T06:21:08.651Z,0.65
2023-03-15T06:23:36.904Z,0.69
2023-03-15T06:26:06.555Z,0.69
2023-03-15T06:28:34.934Z,0.77
2023-03-15T06:31:08.105Z,0.85
2023-03-15T06:33:36.736Z,0.92
2023-03-15T06:36:05.145Z,1.03
2023-03-15T06:38:33.236Z,1.12
2023-03-15T06:41:05.105Z,1.19
2023-03-15T06:43:35.537Z,1.27
2023-03-15T06:46:06.054Z,1.35
2023-03-15T06:48:35.376Z,1.54
2023-03-15T06:51:04.166Z,1.71
2023-03-15T06:53:32.402Z,1.89
2023-03-15T06:56:00.874Z,1.96
2023-03-15T06:58:29.029Z,2.03
2023-03-15T07:00:58.405Z,2.12
2023-03-15T07:03:27.691Z,2.33
2023-03-15T07:05:56.294Z,2.43
2023-03-15T07:08:26.209Z,2.58
2023-03-15T07:10:57.210Z,2.72
2023-03-15T07:13:25.789Z,2.70
2023-03-15T07:15:59.984Z,2.65
2023-03-15T07:18:29.518Z,2.60
2023-03-15T07:20:58.428Z,2.58
2023-03-15T07:23:27.757Z,2.52
2023-03-15T07:25:56.467Z,2.50
2023-03-15T07:28:25.757Z,2.44
2023-03-15T07:30:56.188Z,2.38
2023-03-15T07:33:25.742Z,2.38
2023-03-15T07:35:55.967Z,2.40
2023-03-15T07:38:25.287Z,2.47
2023-03-15T07:40:53.676Z,2.57
2023-03-15T07:43:23.022Z,2.65
2023-03-15T07:45:52.263Z,2.78
2023-03-15T07:48:22.260Z,2.88
2023-03-15T07:50:50.654Z,3.02
2023-03-15T07:53:23.284Z,3.06
2023-03-15T07:55:54.804Z,3.18
2023-03-15T07:58:23.385Z,3.24
2023-03-15T08:00:53.706Z,3.39
2023-03-15T08:03:24.732Z,3.49
2023-03-15T08:05:53.041Z,3.61
2023-03-15T08:08:22.640Z,3.68
2023-03-15T08:10:53.148Z,3.70
2023-03-15T08:13:24.832Z,3.75
2023-03-15T08:15:53.192Z,3.74
2023-03-15T08:18:21.800Z,3.75
2023-03-15T08:20:50.198Z,3.80
2023-03-15T08:23:18.438Z,3.84
2023-03-15T08:25:52.084Z,3.88
2023-03-15T08:28:20.258Z,3.89
2023-03-15T08:30:48.407Z,3.95
2023-03-15T08:33:16.763Z,4.03
2023-03-15T08:35:45.327Z,4.10
2023-03-15T08:38:13.526Z,4.29
2023-03-15T08:40:44.506Z,4.43
2023-03-15T08:43:14.066Z,4.61
2023-03-15T08:45:59.656Z,4.81
2023-03-15T08:48:29.736Z,4.88
2023-03-15T08:50:58.230Z,4.78
2023-03-15T08:53:26.626Z,4.77
2023-03-15T08:55:54.919Z,4.88
2023-03-15T08:58:25.539Z,5.21
2023-03-15T09:00:53.672Z,5.47
2023-03-15T09:03:24.079Z,5.65
2023-03-15T09:05:57.126Z,6.01
2023-03-15T09:08:26.417Z,6.41
2023-03-15T09:10:58.470Z,6.89
2023-03-15T09:13:28.100Z,7.42
2023-03-15T09:15:57.179Z,7.82
2023-03-15T09:18:26.433Z,8.17
2023-03-15T09:20:55.020Z,8.16
2023-03-15T09:23:29.608Z,8.00
2023-03-15T09:25:57.714Z,7.85
2023-03-15T09:28:28.501Z,7.65
2023-03-15T09:30:59.952Z,7.44
2023-03-15T09:33:30.178Z,7.14
2023-03-15T09:35:58.621Z,7.04
2023-03-15T09:38:27.523Z,7.03
2023-03-15T09:40:58.934Z,6.94
2023-03-15T09:43:54.899Z,6.79
2023-03-15T09:46:32.316Z,6.57
2023-03-15T09:49:05.740Z,6.38
2023-03-15T09:51:42.486Z,6.22
2023-03-15T09:54:13.190Z,6.03
2023-03-15T09:56:45.685Z,6.42
2023-03-15T09:59:16.427Z,6.97
2023-03-15T10:01:46.949Z,7.36
2023-03-15T10:04:21.192Z,7.58
2023-03-15T10:06:54.274Z,7.36
2023-03-15T10:09:25.176Z,6.97
2023-03-15T10:12:03.537Z,6.76
2023-03-15T10:14:57.923Z,6.66
2023-03-15T10:17:35.266Z,6.99
2023-03-15T10:20:10.688Z,7.32
2023-03-15T10:22:45.043Z,7.28
2023-03-15T10:25:16.512Z,7.40
2023-03-15T10:27:53.239Z,7.62
2023-03-15T10:30:23.851Z,8.02
2023-03-15T10:32:57.251Z,8.54
2023-03-15T10:35:25.787Z,8.78
2023-03-15T10:37:53.863Z,8.82
2023-03-15T10:40:40.366Z,9.19
2023-03-15T10:43:18.288Z,9.31
2023-03-15T10:45:49.856Z,9.39
2023-03-15T10:48:20.281Z,9.43
2023-03-15T10:50:51.980Z,8.99
2023-03-15T10:53:23.195Z,8.75
2023-03-15T10:55:59.795Z,8.99
2023-03-15T10:58:31.439Z,9.44
2023-03-15T11:01:07.491Z,9.88
2023-03-15T11:03:38.271Z,9.89
2023-03-15T11:06:21.279Z,10.23
2023-03-15T11:08:51.820Z,10.71
2023-03-15T11:11:22.204Z,10.87
2023-03-15T11:14:00.796Z,10.71
2023-03-15T11:16:35.301Z,10.47
2023-03-15T11:19:12.017Z,10.67
2023-03-15T11:21:42.542Z,10.77
2023-03-15T11:24:17.445Z,10.56
2023-03-15T11:26:51.643Z,10.47
2023-03-15T11:29:24.454Z,10.43
2023-03-15T11:31:54.205Z,10.36
2023-03-15T11:34:29.550Z,10.36
2023-03-15T11:37:08.666Z,10.13
2023-03-15T11:39:45.600Z,9.94
2023-03-15T11:42:23.621Z,9.62
2023-03-15T11:44:56.246Z,9.24
2023-03-15T11:47:36.200Z,8.60
2023-03-15T11:50:07.896Z,8.42
2023-03-15T11:52:36.135Z,8.51
2023-03-15T11:55:06.336Z,8.54
2023-03-15T11:57:41.474Z,8.42
2023-03-15T12:00:42.944Z,8.34
2023-03-15T12:03:41.119Z,8.58
2023-03-15T12:06:35.266Z,9.03
2023-03-15T12:09:06.968Z,9.33
2023-03-15T12:11:41.538Z,9.71
2023-03-15T12:14:28.894Z,10.18
2023-03-15T12:17:49.056Z,10.37
2023-03-15T12:20:24.068Z,10.19
2023-03-15T12:22:58.211Z,9.77
2023-03-15T12:25:37.185Z,9.31
2023-03-15T12:28:11.223Z,8.86
2023-03-15T12:30:42.839Z,8.54
2023-03-15T12:33:17.602Z,8.29
2023-03-15T12:35:47.389Z,8.07
2023-03-15T12:38:19.685Z,7.85
2023-03-15T12:40:54.330Z,7.78
2023-03-15T12:43:39.617Z,7.62
2023-03-15T12:46:09.963Z,7.51
2023-03-15T12:49:10.778Z,7.47
2023-03-15T12:51:57.503Z,7.40
2023-03-15T12:54:34.774Z,7.36
2023-03-15T12:57:05.201Z,7.36
2023-03-15T12:59:38.125Z,7.38
2023-03-15T13:02:43.229Z,7.40
2023-03-15T13:05:20.464Z,7.40
2023-03-15T13:07:56.217Z,7.38
2023-03-15T13:10:52.713Z,7.41
2023-03-15T13:13:49.654Z,7.48
2023-03-15T13:16:26.071Z,7.51
2023-03-15T13:19:01.101Z,7.52
2023-03-15T13:21:33.308Z,7.48
2023-03-15T13:24:02.513Z,7.52
2023-03-15T13:26:48.268Z,7.58
2023-03-15T13:29:21.232Z,7.44
2023-03-15T13:32:02.829Z,7.30
2023-03-15T13:34:34.122Z,7.20
2023-03-15T13:37:03.086Z,7.20
2023-03-15T13:39:32.645Z,7.17
2023-03-15T13:42:03.640Z,7.15
2023-03-15T13:44:32.819Z,7.15
2023-03-15T13:47:02.741Z,7.10
2023-03-15T13:49:35.491Z,7.05
2023-03-15T13:52:12.094Z,7.00
2023-03-15T13:54:46.062Z,6.90
2023-03-15T13:57:18.299Z,6.83
2023-03-15T13:59:49.438Z,6.77
2023-03-15T14:02:22.361Z,6.79
2023-03-15T14:04:53.906Z,6.77
2023-03-15T14:07:30.606Z,6.75
2023-03-15T14:10:25.203Z,6.71
2023-03-15T14:12:55.795Z,6.68
2023-03-15T14:15:27.451Z,6.63
2023-03-15T14:18:02.144Z,6.62
2023-03-15T14:20:33.893Z,6.59
2023-03-15T14:23:03.264Z,6.53
2023-03-15T14:25:35.881Z,6.53
2023-03-15T14:28:07.000Z,6.52
2023-03-15T14:30:37.615Z,6.45
2023-03-15T14:33:09.092Z,6.39
2023-03-15T14:35:44.608Z,6.38
2023-03-15T14:38:20.210Z,6.31
2023-03-15T14:40:51.635Z,6.28
2023-03-15T14:43:21.706Z,6.26
2023-03-15T14:45:51.815Z,6.29
2023-03-15T14:48:25.203Z,6.35
2023-03-15T14:50:54.942Z,6.44
2023-03-15T14:53:26.132Z,6.63
2023-03-15T14:55:54.591Z,6.82
2023-03-15T14:58:25.527Z,6.92
2023-03-15T15:00:55.666Z,7.03
2023-03-15T15:03:30.280Z,7.08
2023-03-15T15:05:59.159Z,7.10
2023-03-15T15:08:27.570Z,7.05
2023-03-15T15:10:57.713Z,7.05
2023-03-15T15:13:31.691Z,7.01
2023-03-15T15:15:59.964Z,6.93
2023-03-15T15:18:30.194Z,6.83
2023-03-15T15:21:01.524Z,6.80
2023-03-15T15:23:34.979Z,6.68
2023-03-15T15:26:11.206Z,6.52
2023-03-15T15:28:43.265Z,6.41
2023-03-15T15:31:17.193Z,6.31
2023-03-15T15:33:45.602Z,6.21
2023-03-15T15:36:15.381Z,6.13
2023-03-15T15:38:43.859Z,6.10
2023-03-15T15:41:14.702Z,6.05
2023-03-15T15:43:44.524Z,6.01
2023-03-15T15:46:15.739Z,6.00
2023-03-15T15:48:45.953Z,5.94
2023-03-15T15:51:32.275Z,5.94
2023-03-15T15:54:01.626Z,5.97
2023-03-15T15:56:34.324Z,5.97
2023-03-15T15:59:05.563Z,5.87
2023-03-15T16:01:36.587Z,5.76
2023-03-15T16:04:07.465Z,5.69
2023-03-15T16:06:36.717Z,5.70
2023-03-15T16:09:06.279Z,5.76
2023-03-15T16:11:34.314Z,5.76
2023-03-15T16:14:03.919Z,5.66
2023-03-15T16:16:32.661Z,5.57
2023-03-15T16:19:00.923Z,5.47
2023-03-15T16:21:33.889Z,5.32
2023-03-15T16:24:08.159Z,5.21
2023-03-15T16:26:37.877Z,5.15
2023-03-15T16:29:14.833Z,5.05
2023-03-15T16:31:43.293Z,5.01
2023-03-15T16:34:12.993Z,4.92
2023-03-15T16:36:43.461Z,4.84
2023-03-15T16:39:12.441Z,4.73
2023-03-15T16:41:41.068Z,4.61
2023-03-15T16:44:13.637Z,4.52
2023-03-15T16:46:42.437Z,4.40
2023-03-15T16:49:15.277Z,4.25
2023-03-15T16:51:47.391Z,4.13
2023-03-15T16:54:27.329Z,4.03
2023-03-15T16:57:02.588Z,3.91
2023-03-15T16:59:36.527Z,3.81
2023-03-15T17:02:13.246Z,3.73
2023-03-15T17:04:42.357Z,3.64
2023-03-15T17:07:14.928Z,3.59
2023-03-15T17:09:44.382Z,3.49
2023-03-15T17:12:17.627Z,3.43
2023-03-15T17:14:48.164Z,3.36
2023-03-15T17:17:16.731Z,3.30
2023-03-15T17:19:45.664Z,3.27
2023-03-15T17:22:13.881Z,3.20
2023-03-15T17:24:42.221Z,3.18
2023-03-15T17:27:22.329Z,3.12
2023-03-15T17:29:51.777Z,3.06
2023-03-15T17:32:21.752Z,2.96
2023-03-15T17:34:49.867Z,2.92
2023-03-15T17:37:21.032Z,2.87
2023-03-15T17:39:50.206Z,2.77
2023-03-15T17:42:20.458Z,2.68
2023-03-15T17:44:48.782Z,2.60
2023-03-15T17:47:18.891Z,2.54
2023-03-15T17:49:48.274Z,2.47
2023-03-15T17:52:19.100Z,2.44
2023-03-15T17:54:47.452Z,2.33
2023-03-15T17:57:15.764Z,2.29
2023-03-15T17:59:44.921Z,2.22
2023-03-15T18:02:16.244Z,2.17
2023-03-15T18:04:46.162Z,2.09
2023-03-15T18:07:14.921Z,2.06
2023-03-15T18:09:43.223Z,2.01
2023-03-15T18:12:14.291Z,1.95
2023-03-15T18:14:43.552Z,1.87
2023-03-15T18:17:12.161Z,1.83
2023-03-15T18:19:41.244Z,1.82
2023-03-15T18:22:15.791Z,1.81
2023-03-15T18:24:46.052Z,1.73
2023-03-15T18:27:15.487Z,1.68
2023-03-15T18:29:46.014Z,1.65
2023-03-15T18:32:15.556Z,1.55
2023-03-15T18:34:47.708Z,1.51
2023-03-15T18:37:18.560Z,1.48
2023-03-15T18:39:46.614Z,1.41
2023-03-15T18:42:14.797Z,1.35
2023-03-15T18:44:44.354Z,1.30
2023-03-15T18:47:12.538Z,1.26
2023-03-15T18:49:40.795Z,1.26
2023-03-15T18:52:13.082Z,1.31
2023-03-15T18:54:42.595Z,1.24
2023-03-15T18:57:12.144Z,1.20
2023-03-15T18:59:41.535Z,1.12
2023-03-15T19:02:11.040Z,1.10
2023-03-15T19:04:39.081Z,1.06
2023-03-15T19:07:07.397Z,1.03
2023-03-15T19:09:37.113Z,1.01
2023-03-15T19:12:07.223Z,0.94
2023-03-15T19:14:36.838Z,0.93
2023-03-15T19:17:04.993Z,0.96
2023-03-15T19:19:35.257Z,0.93
2023-03-15T19:22:03.371Z,0.90
2023-03-15T19:24:33.438Z,0.86
2023-03-15T19:27:01.909Z,0.83
2023-03-15T19:29:31.686Z,0.85
2023-03-15T19:32:00.093Z,0.83
2023-03-15T19:34:28.408Z,0.76
2023-03-15T19:36:56.420Z,0.68
2023-03-15T19:39:24.533Z,0.62
2023-03-15T19:41:53.077Z,0.49
2023-03-15T19:44:22.658Z,0.45
2023-03-15T19:46:56.891Z,0.38
2023-03-15T19:49:25.341Z,0.31
2023-03-15T19:51:53.390Z,0.27
2023-03-15T19:54:21.511Z,0.27
2023-03-15T19:56:50.637Z,0.24
2023-03-15T19:59:19.136Z,0.29
2023-03-15T20:01:47.360Z,0.27
2023-03-15T20:04:17.121Z,0.25
2023-03-15T20:06:48.186Z,0.28
2023-03-15T20:09:16.871Z,0.21
2023-03-15T20:11:46.196Z,0.18
2023-03-15T20:14:15.525Z,0.21
2023-03-15T20:16:45.112Z,0.21
2023-03-15T20:19:14.566Z,0.19
2023-03-15T20:21:45.033Z,0.17
2023-03-15T20:24:13.035Z,0.15
2023-03-15T20:26:42.794Z,0.17
2023-03-15T20:29:11.448Z,0.10
2023-03-15T20:31:42.206Z,0.08
2023-03-15T20:34:12.122Z,0.08
2023-03-15T20:36:40.567Z,0.00
2023-03-15T20:39:10.847Z,-0.09
2023-03-15T20:41:39.443Z,-0.07
2023-03-15T20:44:07.961Z,-0.09
2023-03-15T20:46:40.025Z,-0.10
2023-03-15T20:49:08.529Z,-0.11
2023-03-15T20:51:36.955Z,-0.17
2023-03-15T20:54:06.324Z,-0.23
2023-03-15T20:56:37.713Z,-0.21
2023-03-15T20:59:07.780Z,-0.17
2023-03-15T21:01:38.388Z,-0.17
2023-03-15T21:04:06.427Z,-0.20
2023-03-15T21:06:34.698Z,-0.21
2023-03-15T21:09:05.081Z,-0.20
2023-03-15T21:11:34.191Z,-0.15
2023-03-15T21:14:04.520Z,-0.17
2023-03-15T21:16:34.385Z,-0.14
2023-03-15T21:19:03.309Z,-0.14
2023-03-15T21:21:31.922Z,-0.11
2023-03-15T21:24:00.462Z,-0.13
2023-03-15T21:26:31.960Z,-0.09
2023-03-15T21:29:00.756Z,-0.13
2023-03-15T21:31:30.896Z,-0.13
2023-03-15T21:34:00.826Z,-0.13
2023-03-15T21:36:29.118Z,-0.09
2023-03-15T21:38:57.379Z,-0.09
2023-03-15T21:41:28.009Z,-0.06
2023-03-15T21:43:56.533Z,-0.03
2023-03-15T21:46:25.022Z,0.00
2023-03-15T21:48:58.409Z,0.01
2023-03-15T21:51:27.002Z,0.01
2023-03-15T21:54:01.841Z,-0.02
2023-03-15T21:56:30.228Z,-0.07
2023-03-15T21:58:59.541Z,-0.03
2023-03-15T22:01:27.653Z,-0.03
2023-03-15T22:03:57.350Z,-0.07
2023-03-15T22:06:26.018Z,-0.09
2023-03-15T22:08:56.759Z,-0.14
2023-03-15T22:11:29.124Z,-0.20
2023-03-15T22:13:59.732Z,-0.25
2023-03-15T22:16:28.255Z,-0.31
2023-03-15T22:18:57.998Z,-0.37
2023-03-15T22:21:26.208Z,-0.38
2023-03-15T22:23:54.336Z,-0.41
2023-03-15T22:26:22.984Z,-0.48
2023-03-15T22:28:55.028Z,-0.52
2023-03-15T22:31:23.196Z,-0.61
2023-03-15T22:33:51.480Z,-0.64
2023-03-15T22:36:21.576Z,-0.62
2023-03-15T22:38:51.120Z,-0.58
2023-03-15T22:41:20.226Z,-0.57
2023-03-15T22:43:48.423Z,-0.51
2023-03-15T22:46:16.534Z,-0.42
2023-03-15T22:48:47.715Z,-0.35
2023-03-15T22:51:16.905Z,-0.31
2023-03-15T22:53:48.017Z,-0.30
2023-03-15T22:56:16.262Z,-0.40
2023-03-15T22:58:47.290Z,-0.42
2023-03-15T23:01:17.334Z,-0.54
2023-03-15T23:03:46.489Z,-0.57
2023-03-15T23:06:17.335Z,-0.57
2023-03-15T23:08:49.478Z,-0.54
2023-03-15T23:11:17.670Z,-0.55
2023-03-15T23:13:48.932Z,-0.55
2023-03-15T23:16:17.823Z,-0.58
2023-03-15T23:18:48.795Z,-0.64
2023-03-15T23:21:17.952Z,-0.72
2023-03-15T23:23:47.358Z,-0.68
2023-03-15T23:26:16.893Z,-0.73
2023-03-15T23:28:45.032Z,-0.82
2023-03-15T23:31:13.550Z,-0.86
2023-03-15T23:33:44.208Z,-0.86
2023-03-15T23:36:12.211Z,-0.86
2023-03-15T23:38:43.295Z,-0.88
2023-03-15T23:41:12.690Z,-0.92
2023-03-15T23:43:41.615Z,-0.95
2023-03-15T23:46:10.794Z,-0.86
2023-03-15T23:48:39.017Z,-0.85
2023-03-15T23:51:07.972Z,-0.85
2023-03-15T23:53:37.070Z,-0.86
2023-03-15T23:56:06.863Z,-0.85
2023-03-15T23:58:36.424Z,-0.88
